sensor_id;sensor_type;location;lat;lon;timestamp;temperature;humidity
37956;DHT22;23776;51.592;7.180;2024-01-15T00:01:14;1.40;99.90
37956;DHT22;23776;51.592;7.180;2024-01-15T00:03:40;1.40;99.90
37956;DHT22;23776;51.592;7.180;2024-01-15T00:06:05;1.40;99.90
37956;DHT22;23776;51.592;7.180;2024-01-15T00:08:31;1.40;99.90
37956;DHT22;23776;51.592;7.180;2024-01-15T00:10:56;1.40;99.90
37956;DHT22;23776;51.592;7.180;2024-01-15T00:13:22;1.40;99.90
37956;DHT22;23776;51.592;7.180;2024-01-15T00:15:48;1.40;99.90
37956;DHT22;23776;51.592;7.180;2024-01-15T00:18:13;1.50;99.90
37956;DHT22;23776;51.592;7.180;2024-01-15T00:20:39;1.50;99.90
37956;DHT22;23776;51.592;7.180;2024-01-15T00:23:04;1.50;99.90
37956;DHT22;23776;51.592;7.180;2024-01-15T00:25:30;1.50;99.90
37956;DHT22;23776;51.592;7.180;2024-01-15T00:27:55;1.50;99.90
37956;DHT22;23776;51.592;7.180;2024-01-15T00:30:21;1.50;99.90
37956;DHT22;23776;51.592;7.180;2024-01-15T00:32:47;1.50;99.90
37956;DHT22;23776;51.592;7.180;2024-01-15T00:35:12;1.50;99.90
37956;DHT22;23776;51.592;7.180;2024-01-15T00:37:38;1.50;99.90
37956;DHT22;23776;51.592;7.180;2024-01-15T00:40:04;1.50;99.90
37956;DHT22;23776;51.592;7.180;2024-01-15T00:42:30;1.60;99.90
37956;DHT22;23776;51.592;7.180;2024-01-15T00:44:56;1.60;99.90
37956;DHT22;23776;51.592;7.180;2024-01-15T00:47:21;1.60;99.90
37956;DHT22;23776;51.592;7.180;2024-01-15T00:49:47;1.50;99.90
37956;DHT22;23776;51.592;7.180;2024-01-15T00:52:12;1.60;99.90
37956;DHT22;23776;51.592;7.180;2024-01-15T00:54:38;1.60;99.90
37956;DHT22;23776;51.592;7.180;2024-01-15T00:57:04;1.60;99.90
37956;DHT22;23776;51.592;7.180;2024-01-15T00:59:30;1.60;99.90
37956;DHT22;23776;51.592;7.180;2024-01-15T01:01:55;1.60;99.90
37956;DHT22;23776;51.592;7.180;2024-01-15T01:04:21;1.60;99.90
37956;DHT22;23776;51.592;7.180;2024-01-15T01:06:46;1.60;99.90
37956;DHT22;23776;51.592;7.180;2024-01-15T01:09:12;1.60;99.90
37956;DHT22;23776;51.592;7.180;2024-01-15T01:11:37;1.60;99.90
37956;DHT22;23776;51.592;7.180;2024-01-15T01:14:03;1.60;99.90
37956;DHT22;23776;51.592;7.180;2024-01-15T01:16:29;1.60;99.90
37956;DHT22;23776;51.592;7.180;2024-01-15T01:18:55;1.60;99.90
37956;DHT22;23776;51.592;7.180;2024-01-15T01:21:21;1.60;99.90
37956;DHT22;23776;51.592;7.180;2024-01-15T01:23:46;1.60;99.90
37956;DHT22;23776;51.592;7.180;2024-01-15T01:26:15;1.60;99.90
37956;DHT22;23776;51.592;7.180;2024-01-15T01:28:41;1.60;99.90
37956;DHT22;23776;51.592;7.180;2024-01-15T01:31:07;1.70;99.90
37956;DHT22;23776;51.592;7.180;2024-01-15T01:33:33;1.60;99.90
37956;DHT22;23776;51.592;7.180;2024-01-15T01:35:59;1.60;99.90
37956;DHT22;23776;51.592;7.180;2024-01-15T01:38:24;1.50;99.90
37956;DHT22;23776;51.592;7.180;2024-01-15T01:40:50;1.60;99.90
37956;DHT22;23776;51.592;7.180;2024-01-15T01:43:16;1.60;99.90
37956;DHT22;23776;51.592;7.180;2024-01-15T01:45:41;1.60;99.90
37956;DHT22;23776;51.592;7.180;2024-01-15T01:48:07;1.60;99.90
37956;DHT22;23776;51.592;7.180;2024-01-15T01:50:33;1.50;99.90
37956;DHT22;23776;51.592;7.180;2024-01-15T01:53:00;1.60;99.90
37956;DHT22;23776;51.592;7.180;2024-01-15T01:55:27;1.60;99.90
37956;DHT22;23776;51.592;7.180;2024-01-15T01:57:55;1.50;99.90
37956;DHT22;23776;51.592;7.180;2024-01-15T02:00:21;1.60;99.90
37956;DHT22;23776;51.592;7.180;2024-01-15T02:02:46;1.50;99.90
37956;DHT22;23776;51.592;7.180;2024-01-15T02:05:14;1.60;99.90
37956;DHT22;23776;51.592;7.180;2024-01-15T02:07:44;1.50;99.90
37956;DHT22;23776;51.592;7.180;2024-01-15T02:10:10;0.50;99.90
37956;DHT22;23776;51.592;7.180;2024-01-15T02:12:35;1.50;99.90
37956;DHT22;23776;51.592;7.180;2024-01-15T02:15:01;1.50;99.90
37956;DHT22;23776;51.592;7.180;2024-01-15T02:17:26;1.50;99.90
37956;DHT22;23776;51.592;7.180;2024-01-15T02:19:52;1.50;99.90
37956;DHT22;23776;51.592;7.180;2024-01-15T02:22:17;1.60;99.90
37956;DHT22;23776;51.592;7.180;2024-01-15T02:24:43;1.50;99.90
37956;DHT22;23776;51.592;7.180;2024-01-15T02:27:09;1.60;99.90
37956;DHT22;23776;51.592;7.180;2024-01-15T02:29:35;1.60;99.90
37956;DHT22;23776;51.592;7.180;2024-01-15T02:32:05;1.60;99.90
37956;DHT22;23776;51.592;7.180;2024-01-15T02:34:34;1.70;99.90
37956;DHT22;23776;51.592;7.180;2024-01-15T02:36:59;1.70;99.90
37956;DHT22;23776;51.592;7.180;2024-01-15T02:39:25;1.70;98.90
37956;DHT22;23776;51.592;7.180;2024-01-15T02:41:51;1.60;99.10
37956;DHT22;23776;51.592;7.180;2024-01-15T02:44:16;1.60;99.50
37956;DHT22;23776;51.592;7.180;2024-01-15T02:46:42;1.60;99.90
37956;DHT22;23776;51.592;7.180;2024-01-15T02:49:07;1.60;98.90
37956;DHT22;23776;51.592;7.180;2024-01-15T02:51:33;1.50;99.00
37956;DHT22;23776;51.592;7.180;2024-01-15T02:53:58;1.50;99.50
37956;DHT22;23776;51.592;7.180;2024-01-15T02:56:24;1.40;99.30
37956;DHT22;23776;51.592;7.180;2024-01-15T02:58:49;1.40;99.60
37956;DHT22;23776;51.592;7.180;2024-01-15T03:01:17;1.40;99.90
37956;DHT22;23776;51.592;7.180;2024-01-15T03:03:43;1.50;99.90
37956;DHT22;23776;51.592;7.180;2024-01-15T03:06:10;1.40;99.60
37956;DHT22;23776;51.592;7.180;2024-01-15T03:08:35;1.40;99.60
37956;DHT22;23776;51.592;7.180;2024-01-15T03:11:01;1.40;99.40
37956;DHT22;23776;51.592;7.180;2024-01-15T03:13:26;1.40;99.30
37956;DHT22;23776;51.592;7.180;2024-01-15T03:15:52;1.40;99.40
37956;DHT22;23776;51.592;7.180;2024-01-15T03:18:17;1.50;99.70
37956;DHT22;23776;51.592;7.180;2024-01-15T03:20:43;1.50;99.00
37956;DHT22;23776;51.592;7.180;2024-01-15T03:23:08;1.50;99.20
37956;DHT22;23776;51.592;7.180;2024-01-15T03:25:34;1.60;99.80
37956;DHT22;23776;51.592;7.180;2024-01-15T03:28:00;1.60;99.00
37956;DHT22;23776;51.592;7.180;2024-01-15T03:30:25;1.60;98.70
37956;DHT22;23776;51.592;7.180;2024-01-15T03:32:51;1.70;97.10
37956;DHT22;23776;51.592;7.180;2024-01-15T03:35:16;1.60;97.10
37956;DHT22;23776;51.592;7.180;2024-01-15T03:37:42;4.10;98.30
37956;DHT22;23776;51.592;7.180;2024-01-15T03:40:08;1.70;96.60
37956;DHT22;23776;51.592;7.180;2024-01-15T03:42:34;1.80;96.50
37956;DHT22;23776;51.592;7.180;2024-01-15T03:44:59;1.80;96.60
37956;DHT22;23776;51.592;7.180;2024-01-15T03:47:25;1.70;96.00
37956;DHT22;23776;51.592;7.180;2024-01-15T03:49:51;1.70;96.40
37956;DHT22;23776;51.592;7.180;2024-01-15T03:52:17;1.70;95.80
37956;DHT22;23776;51.592;7.180;2024-01-15T03:54:42;1.70;95.70
37956;DHT22;23776;51.592;7.180;2024-01-15T03:57:08;1.80;95.90
37956;DHT22;23776;51.592;7.180;2024-01-15T03:59:33;1.80;94.60
37956;DHT22;23776;51.592;7.180;2024-01-15T04:01:59;1.80;93.50
37956;DHT22;23776;51.592;7.180;2024-01-15T04:04:24;1.80;93.20
37956;DHT22;23776;51.592;7.180;2024-01-15T04:06:50;1.80;93.40
37956;DHT22;23776;51.592;7.180;2024-01-15T04:09:15;1.80;92.50
37956;DHT22;23776;51.592;7.180;2024-01-15T04:11:41;1.80;92.20
37956;DHT22;23776;51.592;7.180;2024-01-15T04:14:07;1.80;92.80
37956;DHT22;23776;51.592;7.180;2024-01-15T04:16:32;1.70;92.80
37956;DHT22;23776;51.592;7.180;2024-01-15T04:18:58;1.60;93.70
37956;DHT22;23776;51.592;7.180;2024-01-15T04:21:23;1.60;94.60
37956;DHT22;23776;51.592;7.180;2024-01-15T04:23:49;1.60;94.80
37956;DHT22;23776;51.592;7.180;2024-01-15T04:26:14;1.60;95.00
37956;DHT22;23776;51.592;7.180;2024-01-15T04:28:40;1.70;94.70
37956;DHT22;23776;51.592;7.180;2024-01-15T04:31:05;1.70;93.00
37956;DHT22;23776;51.592;7.180;2024-01-15T04:33:31;1.70;92.70
37956;DHT22;23776;51.592;7.180;2024-01-15T04:35:57;1.70;93.40
37956;DHT22;23776;51.592;7.180;2024-01-15T04:38:26;1.70;93.40
37956;DHT22;23776;51.592;7.180;2024-01-15T04:40:51;1.70;93.90
37956;DHT22;23776;51.592;7.180;2024-01-15T04:43:17;1.80;94.70
37956;DHT22;23776;51.592;7.180;2024-01-15T04:45:43;1.80;94.00
37956;DHT22;23776;51.592;7.180;2024-01-15T04:48:08;1.80;92.80
37956;DHT22;23776;51.592;7.180;2024-01-15T04:50:34;1.80;92.40
37956;DHT22;23776;51.592;7.180;2024-01-15T04:52:59;1.80;91.10
37956;DHT22;23776;51.592;7.180;2024-01-15T04:55:25;1.90;91.40
37956;DHT22;23776;51.592;7.180;2024-01-15T04:57:50;2.00;89.30
37956;DHT22;23776;51.592;7.180;2024-01-15T05:00:16;2.00;87.80
37956;DHT22;23776;51.592;7.180;2024-01-15T05:02:41;1.90;88.50
37956;DHT22;23776;51.592;7.180;2024-01-15T05:05:07;2.00;90.80
37956;DHT22;23776;51.592;7.180;2024-01-15T05:07:33;1.90;87.20
37956;DHT22;23776;51.592;7.180;2024-01-15T05:09:58;1.90;86.60
37956;DHT22;23776;51.592;7.180;2024-01-15T05:12:24;1.90;86.90
37956;DHT22;23776;51.592;7.180;2024-01-15T05:14:49;1.90;87.30
37956;DHT22;23776;51.592;7.180;2024-01-15T05:17:15;1.90;89.10
37956;DHT22;23776;51.592;7.180;2024-01-15T05:19:40;1.90;90.00
37956;DHT22;23776;51.592;7.180;2024-01-15T05:22:06;1.90;90.40
37956;DHT22;23776;51.592;7.180;2024-01-15T05:24:31;1.90;90.60
37956;DHT22;23776;51.592;7.180;2024-01-15T05:26:57;1.90;90.30
37956;DHT22;23776;51.592;7.180;2024-01-15T05:29:22;2.00;91.10
37956;DHT22;23776;51.592;7.180;2024-01-15T05:31:48;2.00;89.50
37956;DHT22;23776;51.592;7.180;2024-01-15T05:34:13;2.00;89.60
37956;DHT22;23776;51.592;7.180;2024-01-15T05:36:39;2.00;91.10
37956;DHT22;23776;51.592;7.180;2024-01-15T05:39:05;2.00;90.60
37956;DHT22;23776;51.592;7.180;2024-01-15T05:41:30;2.00;87.70
37956;DHT22;23776;51.592;7.180;2024-01-15T05:43:56;4.30;89.40
37956;DHT22;23776;51.592;7.180;2024-01-15T05:46:21;2.10;86.40
37956;DHT22;23776;51.592;7.180;2024-01-15T05:48:47;2.00;85.90
37956;DHT22;23776;51.592;7.180;2024-01-15T05:51:13;2.00;86.10
37956;DHT22;23776;51.592;7.180;2024-01-15T05:53:38;2.00;88.30
37956;DHT22;23776;51.592;7.180;2024-01-15T05:56:06;2.00;90.80
37956;DHT22;23776;51.592;7.180;2024-01-15T05:58:31;2.00;90.10
37956;DHT22;23776;51.592;7.180;2024-01-15T06:00:57;2.00;86.20
37956;DHT22;23776;51.592;7.180;2024-01-15T06:03:22;1.90;89.80
37956;DHT22;23776;51.592;7.180;2024-01-15T06:05:48;1.90;89.90
37956;DHT22;23776;51.592;7.180;2024-01-15T06:08:13;1.90;90.90
37956;DHT22;23776;51.592;7.180;2024-01-15T06:10:40;1.80;91.10
37956;DHT22;23776;51.592;7.180;2024-01-15T06:13:05;1.80;92.20
37956;DHT22;23776;51.592;7.180;2024-01-15T06:15:31;1.80;92.50
37956;DHT22;23776;51.592;7.180;2024-01-15T06:17:56;1.80;92.70
37956;DHT22;23776;51.592;7.180;2024-01-15T06:20:22;1.80;93.00
37956;DHT22;23776;51.592;7.180;2024-01-15T06:22:47;1.90;92.20
37956;DHT22;23776;51.592;7.180;2024-01-15T06:25:13;1.90;93.30
37956;DHT22;23776;51.592;7.180;2024-01-15T06:27:39;1.90;92.40
37956;DHT22;23776;51.592;7.180;2024-01-15T06:30:05;1.90;91.80
37956;DHT22;23776;51.592;7.180;2024-01-15T06:32:30;-0.10;91.20
37956;DHT22;23776;51.592;7.180;2024-01-15T06:34:56;1.90;91.90
37956;DHT22;23776;51.592;7.180;2024-01-15T06:37:21;2.00;91.20
37956;DHT22;23776;51.592;7.180;2024-01-15T06:39:47;2.00;91.20
37956;DHT22;23776;51.592;7.180;2024-01-15T06:42:13;1.90;90.70
37956;DHT22;23776;51.592;7.180;2024-01-15T06:44:38;2.00;90.50
37956;DHT22;23776;51.592;7.180;2024-01-15T06:47:05;1.90;91.30
37956;DHT22;23776;51.592;7.180;2024-01-15T06:49:31;2.00;91.00
37956;DHT22;23776;51.592;7.180;2024-01-15T06:51:57;2.00;89.00
37956;DHT22;23776;51.592;7.180;2024-01-15T06:54:22;1.90;90.40
37956;DHT22;23776;51.592;7.180;2024-01-15T06:56:49;2.00;91.20
37956;DHT22;23776;51.592;7.180;2024-01-15T06:59:14;2.00;90.00
37956;DHT22;23776;51.592;7.180;2024-01-15T07:01:40;2.00;90.40
37956;DHT22;23776;51.592;7.180;2024-01-15T07:04:05;2.00;90.30
37956;DHT22;23776;51.592;7.180;2024-01-15T07:06:31;2.00;90.10
37956;DHT22;23776;51.592;7.180;2024-01-15T07:08:57;2.00;90.30
37956;DHT22;23776;51.592;7.180;2024-01-15T07:11:23;1.90;90.30
37956;DHT22;23776;51.592;7.180;2024-01-15T07:13:48;1.90;90.00
37956;DHT22;23776;51.592;7.180;2024-01-15T07:16:14;1.90;89.70
37956;DHT22;23776;51.592;7.180;2024-01-15T07:18:40;1.90;89.00
37956;DHT22;23776;51.592;7.180;2024-01-15T07:21:06;2.00;89.70
37956;DHT22;23776;51.592;7.180;2024-01-15T07:23:32;2.00;89.40
37956;DHT22;23776;51.592;7.180;2024-01-15T07:25:57;2.00;87.60
37956;DHT22;23776;51.592;7.180;2024-01-15T07:28:23;2.00;84.90
37956;DHT22;23776;51.592;7.180;2024-01-15T07:30:48;1.90;86.70
37956;DHT22;23776;51.592;7.180;2024-01-15T07:33:14;1.90;87.40
37956;DHT22;23776;51.592;7.180;2024-01-15T07:35:40;1.90;89.00
37956;DHT22;23776;51.592;7.180;2024-01-15T07:38:05;1.90;89.30
37956;DHT22;23776;51.592;7.180;2024-01-15T07:40:31;2.00;87.20
37956;DHT22;23776;51.592;7.180;2024-01-15T07:42:56;2.00;85.40
37956;DHT22;23776;51.592;7.180;2024-01-15T07:45:22;2.00;86.40
37956;DHT22;23776;51.592;7.180;2024-01-15T07:47:48;2.00;85.90
37956;DHT22;23776;51.592;7.180;2024-01-15T07:50:14;2.00;86.90
37956;DHT22;23776;51.592;7.180;2024-01-15T07:52:40;1.90;89.60
37956;DHT22;23776;51.592;7.180;2024-01-15T07:55:07;1.90;90.80
37956;DHT22;23776;51.592;7.180;2024-01-15T07:57:33;1.90;91.30
37956;DHT22;23776;51.592;7.180;2024-01-15T07:59:59;1.90;92.90
37956;DHT22;23776;51.592;7.180;2024-01-15T08:02:24;1.80;92.80
37956;DHT22;23776;51.592;7.180;2024-01-15T08:04:50;1.80;92.90
37956;DHT22;23776;51.592;7.180;2024-01-15T08:07:15;1.80;93.30
37956;DHT22;23776;51.592;7.180;2024-01-15T08:09:41;1.80;94.20
37956;DHT22;23776;51.592;7.180;2024-01-15T08:12:07;1.80;95.10
37956;DHT22;23776;51.592;7.180;2024-01-15T08:14:33;1.70;95.40
37956;DHT22;23776;51.592;7.180;2024-01-15T08:16:58;1.70;96.40
37956;DHT22;23776;51.592;7.180;2024-01-15T08:19:24;1.60;96.10
37956;DHT22;23776;51.592;7.180;2024-01-15T08:21:49;1.50;97.20
37956;DHT22;23776;51.592;7.180;2024-01-15T08:24:15;1.40;98.20
37956;DHT22;23776;51.592;7.180;2024-01-15T08:26:42;1.40;99.30
37956;DHT22;23776;51.592;7.180;2024-01-15T08:29:07;1.40;99.90
37956;DHT22;23776;51.592;7.180;2024-01-15T08:31:33;1.30;99.90
37956;DHT22;23776;51.592;7.180;2024-01-15T08:33:58;1.30;99.90
37956;DHT22;23776;51.592;7.180;2024-01-15T08:36:25;1.30;99.90
37956;DHT22;23776;51.592;7.180;2024-01-15T08:38:50;0.50;99.90
37956;DHT22;23776;51.592;7.180;2024-01-15T08:41:16;1.30;99.90
37956;DHT22;23776;51.592;7.180;2024-01-15T08:43:41;1.30;99.90
37956;DHT22;23776;51.592;7.180;2024-01-15T08:46:07;1.30;99.90
37956;DHT22;23776;51.592;7.180;2024-01-15T08:48:33;1.40;99.90
37956;DHT22;23776;51.592;7.180;2024-01-15T08:50:58;1.40;99.90
37956;DHT22;23776;51.592;7.180;2024-01-15T08:53:24;1.50;99.90
37956;DHT22;23776;51.592;7.180;2024-01-15T08:55:50;1.40;99.90
37956;DHT22;23776;51.592;7.180;2024-01-15T08:58:15;1.40;99.90
37956;DHT22;23776;51.592;7.180;2024-01-15T09:00:41;1.50;99.90
37956;DHT22;23776;51.592;7.180;2024-01-15T09:03:07;1.40;99.90
37956;DHT22;23776;51.592;7.180;2024-01-15T09:05:34;1.40;99.90
37956;DHT22;23776;51.592;7.180;2024-01-15T09:07:59;1.50;99.90
37956;DHT22;23776;51.592;7.180;2024-01-15T09:10:25;1.60;99.90
37956;DHT22;23776;51.592;7.180;2024-01-15T09:12:50;1.60;99.90
37956;DHT22;23776;51.592;7.180;2024-01-15T09:15:16;1.60;99.90
37956;DHT22;23776;51.592;7.180;2024-01-15T09:17:42;1.50;99.90
37956;DHT22;23776;51.592;7.180;2024-01-15T09:20:09;1.50;99.90
37956;DHT22;23776;51.592;7.180;2024-01-15T09:22:35;1.50;99.90
37956;DHT22;23776;51.592;7.180;2024-01-15T09:25:03;1.50;99.90
37956;DHT22;23776;51.592;7.180;2024-01-15T09:27:29;1.60;99.90
37956;DHT22;23776;51.592;7.180;2024-01-15T09:29:55;1.50;99.90
37956;DHT22;23776;51.592;7.180;2024-01-15T09:32:20;1.50;99.90
37956;DHT22;23776;51.592;7.180;2024-01-15T09:34:46;1.40;99.90
37956;DHT22;23776;51.592;7.180;2024-01-15T09:37:12;1.40;99.90
37956;DHT22;23776;51.592;7.180;2024-01-15T09:39:39;1.40;99.90
37956;DHT22;23776;51.592;7.180;2024-01-15T09:42:05;1.50;99.90
37956;DHT22;23776;51.592;7.180;2024-01-15T09:44:31;1.40;99.90
37956;DHT22;23776;51.592;7.180;2024-01-15T09:46:57;1.30;99.90
37956;DHT22;23776;51.592;7.180;2024-01-15T09:49:23;1.30;99.90
37956;DHT22;23776;51.592;7.180;2024-01-15T09:51:48;1.30;99.90
37956;DHT22;23776;51.592;7.180;2024-01-15T09:54:15;1.40;99.90
37956;DHT22;23776;51.592;7.180;2024-01-15T09:56:45;1.60;99.90
37956;DHT22;23776;51.592;7.180;2024-01-15T09:59:14;1.50;99.90
37956;DHT22;23776;51.592;7.180;2024-01-15T10:01:40;1.50;99.90
37956;DHT22;23776;51.592;7.180;2024-01-15T10:04:06;1.50;99.90
37956;DHT22;23776;51.592;7.180;2024-01-15T10:06:32;1.40;99.90
37956;DHT22;23776;51.592;7.180;2024-01-15T10:08:59;1.40;99.90
37956;DHT22;23776;51.592;7.180;2024-01-15T10:11:25;1.40;99.90
37956;DHT22;23776;51.592;7.180;2024-01-15T10:13:50;1.40;99.90
37956;DHT22;23776;51.592;7.180;2024-01-15T10:16:19;1.50;99.90
37956;DHT22;23776;51.592;7.180;2024-01-15T10:18:44;1.50;99.90
37956;DHT22;23776;51.592;7.180;2024-01-15T10:21:10;1.60;99.90
37956;DHT22;23776;51.592;7.180;2024-01-15T10:23:35;1.60;99.90
37956;DHT22;23776;51.592;7.180;2024-01-15T10:26:02;1.60;99.90
37956;DHT22;23776;51.592;7.180;2024-01-15T10:28:28;1.70;99.90
37956;DHT22;23776;51.592;7.180;2024-01-15T10:30:57;1.60;99.80
37956;DHT22;23776;51.592;7.180;2024-01-15T10:33:23;1.60;99.90
37956;DHT22;23776;51.592;7.180;2024-01-15T10:35:57;1.60;99.90
37956;DHT22;23776;51.592;7.180;2024-01-15T10:38:24;1.50;99.90
37956;DHT22;23776;51.592;7.180;2024-01-15T10:40:54;1.50;99.90
37956;DHT22;23776;51.592;7.180;2024-01-15T10:43:20;1.60;99.90
37956;DHT22;23776;51.592;7.180;2024-01-15T10:45:47;1.70;99.90
37956;DHT22;23776;51.592;7.180;2024-01-15T10:48:13;1.80;99.90
37956;DHT22;23776;51.592;7.180;2024-01-15T10:50:39;1.80;99.20
37956;DHT22;23776;51.592;7.180;2024-01-15T10:53:05;1.80;96.00
37956;DHT22;23776;51.592;7.180;2024-01-15T10:55:35;1.70;96.10
37956;DHT22;23776;51.592;7.180;2024-01-15T10:58:03;1.80;97.30
37956;DHT22;23776;51.592;7.180;2024-01-15T11:00:34;1.90;97.80
37956;DHT22;23776;51.592;7.180;2024-01-15T11:03:01;1.90;96.80
37956;DHT22;23776;51.592;7.180;2024-01-15T11:05:27;1.80;95.80
37956;DHT22;23776;51.592;7.180;2024-01-15T11:07:56;1.90;97.10
37956;DHT22;23776;51.592;7.180;2024-01-15T11:13:21;2.00;96.30
37956;DHT22;23776;51.592;7.180;2024-01-15T11:16:01;2.10;96.10
37956;DHT22;23776;51.592;7.180;2024-01-15T11:18:33;2.30;95.80
37956;DHT22;23776;51.592;7.180;2024-01-15T11:23:44;2.30;91.10
37956;DHT22;23776;51.592;7.180;2024-01-15T11:26:36;2.30;90.70
37956;DHT22;23776;51.592;7.180;2024-01-15T11:32:06;2.10;90.30
37956;DHT22;23776;51.592;7.180;2024-01-15T11:37:17;2.10;90.80
37956;DHT22;23776;51.592;7.180;2024-01-15T11:39:43;2.20;85.00
37956;DHT22;23776;51.592;7.180;2024-01-15T11:42:13;2.20;86.10
37956;DHT22;23776;51.592;7.180;2024-01-15T11:44:40;2.20;85.90
37956;DHT22;23776;51.592;7.180;2024-01-15T11:47:10;3.50;81.90
37956;DHT22;23776;51.592;7.180;2024-01-15T11:52:37;2.30;79.20
37956;DHT22;23776;51.592;7.180;2024-01-15T11:55:19;2.20;73.30
37956;DHT22;23776;51.592;7.180;2024-01-15T11:57:51;2.30;78.90
37956;DHT22;23776;51.592;7.180;2024-01-15T12:00:18;2.30;73.50
37956;DHT22;23776;51.592;7.180;2024-01-15T12:02:45;2.40;77.70
37956;DHT22;23776;51.592;7.180;2024-01-15T12:05:15;2.50;77.20
37956;DHT22;23776;51.592;7.180;2024-01-15T12:07:42;2.50;71.30
37956;DHT22;23776;51.592;7.180;2024-01-15T12:10:13;2.50;69.40
37956;DHT22;23776;51.592;7.180;2024-01-15T12:15:23;2.60;70.60
37956;DHT22;23776;51.592;7.180;2024-01-15T12:17:49;2.70;72.50
37956;DHT22;23776;51.592;7.180;2024-01-15T12:20:15;2.80;62.50
37956;DHT22;23776;51.592;7.180;2024-01-15T12:22:42;3.00;53.10
37956;DHT22;23776;51.592;7.180;2024-01-15T12:25:08;3.20;46.20
37956;DHT22;23776;51.592;7.180;2024-01-15T12:27:34;3.10;40.60
37956;DHT22;23776;51.592;7.180;2024-01-15T12:30:00;3.00;46.70
37956;DHT22;23776;51.592;7.180;2024-01-15T12:32:25;2.80;51.50
37956;DHT22;23776;51.592;7.180;2024-01-15T12:34:51;4.00;52.40
37956;DHT22;23776;51.592;7.180;2024-01-15T12:37:20;2.70;57.60
37956;DHT22;23776;51.592;7.180;2024-01-15T12:39:47;1.70;63.40
37956;DHT22;23776;51.592;7.180;2024-01-15T12:42:14;2.40;69.40
37956;DHT22;23776;51.592;7.180;2024-01-15T12:44:42;2.40;63.20
37956;DHT22;23776;51.592;7.180;2024-01-15T12:47:07;2.40;67.70
37956;DHT22;23776;51.592;7.180;2024-01-15T12:49:33;2.50;66.80
37956;DHT22;23776;51.592;7.180;2024-01-15T12:52:01;2.50;65.70
37956;DHT22;23776;51.592;7.180;2024-01-15T12:54:27;4.40;66.80
37956;DHT22;23776;51.592;7.180;2024-01-15T12:56:52;2.50;58.70
37956;DHT22;23776;51.592;7.180;2024-01-15T12:59:18;2.60;57.60
37956;DHT22;23776;51.592;7.180;2024-01-15T13:01:44;2.70;48.60
37956;DHT22;23776;51.592;7.180;2024-01-15T13:04:10;2.60;50.50
37956;DHT22;23776;51.592;7.180;2024-01-15T13:06:36;2.60;53.70
37956;DHT22;23776;51.592;7.180;2024-01-15T13:09:05;2.60;50.00
37956;DHT22;23776;51.592;7.180;2024-01-15T13:11:31;2.60;47.70
37956;DHT22;23776;51.592;7.180;2024-01-15T13:13:57;2.50;54.20
37956;DHT22;23776;51.592;7.180;2024-01-15T13:16:22;2.40;56.90
37956;DHT22;23776;51.592;7.180;2024-01-15T13:18:48;2.40;59.20
37956;DHT22;23776;51.592;7.180;2024-01-15T13:21:15;2.50;63.00
37956;DHT22;23776;51.592;7.180;2024-01-15T13:23:41;2.50;59.80
37956;DHT22;23776;51.592;7.180;2024-01-15T13:26:06;2.50;50.50
37956;DHT22;23776;51.592;7.180;2024-01-15T13:28:32;2.50;51.60
37956;DHT22;23776;51.592;7.180;2024-01-15T13:30:58;2.60;46.20
37956;DHT22;23776;51.592;7.180;2024-01-15T13:33:23;2.60;45.40
37956;DHT22;23776;51.592;7.180;2024-01-15T13:35:49;2.60;36.40
37956;DHT22;23776;51.592;7.180;2024-01-15T13:38:17;2.70;30.60
37956;DHT22;23776;51.592;7.180;2024-01-15T13:40:43;2.70;37.80
37956;DHT22;23776;51.592;7.180;2024-01-15T13:43:11;2.60;40.60
37956;DHT22;23776;51.592;7.180;2024-01-15T13:45:37;2.60;45.40
37956;DHT22;23776;51.592;7.180;2024-01-15T13:48:03;2.60;47.40
37956;DHT22;23776;51.592;7.180;2024-01-15T13:50:31;2.60;51.40
37956;DHT22;23776;51.592;7.180;2024-01-15T13:52:57;2.80;49.40
37956;DHT22;23776;51.592;7.180;2024-01-15T13:55:22;2.80;42.00
37956;DHT22;23776;51.592;7.180;2024-01-15T13:57:48;2.80;39.00
37956;DHT22;23776;51.592;7.180;2024-01-15T14:00:14;2.80;42.20
37956;DHT22;23776;51.592;7.180;2024-01-15T14:02:44;2.70;46.60
37956;DHT22;23776;51.592;7.180;2024-01-15T14:05:09;2.50;55.80
37956;DHT22;23776;51.592;7.180;2024-01-15T14:07:41;2.10;72.50
37956;DHT22;23776;51.592;7.180;2024-01-15T14:10:10;1.90;86.90
37956;DHT22;23776;51.592;7.180;2024-01-15T14:12:36;1.80;95.70
37956;DHT22;23776;51.592;7.180;2024-01-15T14:15:02;1.80;95.90
37956;DHT22;23776;51.592;7.180;2024-01-15T14:17:28;1.90;96.50
37956;DHT22;23776;51.592;7.180;2024-01-15T14:19:53;2.00;96.40
37956;DHT22;23776;51.592;7.180;2024-01-15T14:22:19;1.90;95.60
37956;DHT22;23776;51.592;7.180;2024-01-15T14:24:44;2.00;95.50
37956;DHT22;23776;51.592;7.180;2024-01-15T14:27:10;2.00;95.80
37956;DHT22;23776;51.592;7.180;2024-01-15T14:29:35;2.00;95.50
37956;DHT22;23776;51.592;7.180;2024-01-15T14:32:01;2.00;93.30
37956;DHT22;23776;51.592;7.180;2024-01-15T14:34:27;2.00;93.70
37956;DHT22;23776;51.592;7.180;2024-01-15T14:36:53;2.00;91.10
37956;DHT22;23776;51.592;7.180;2024-01-15T14:39:20;2.00;91.50
37956;DHT22;23776;51.592;7.180;2024-01-15T14:41:46;2.00;91.70
37956;DHT22;23776;51.592;7.180;2024-01-15T14:44:12;2.00;92.60
37956;DHT22;23776;51.592;7.180;2024-01-15T14:46:38;2.00;92.40
37956;DHT22;23776;51.592;7.180;2024-01-15T14:49:03;2.00;91.70
37956;DHT22;23776;51.592;7.180;2024-01-15T14:51:29;2.00;90.40
37956;DHT22;23776;51.592;7.180;2024-01-15T14:53:55;2.00;91.20
37956;DHT22;23776;51.592;7.180;2024-01-15T14:56:20;2.00;88.50
37956;DHT22;23776;51.592;7.180;2024-01-15T14:58:46;2.00;89.00
37956;DHT22;23776;51.592;7.180;2024-01-15T15:01:15;1.90;89.30
37956;DHT22;23776;51.592;7.180;2024-01-15T15:03:40;1.90;89.90
37956;DHT22;23776;51.592;7.180;2024-01-15T15:06:06;1.90;90.10
37956;DHT22;23776;51.592;7.180;2024-01-15T15:08:35;1.80;89.60
37956;DHT22;23776;51.592;7.180;2024-01-15T15:11:01;1.80;90.60
37956;DHT22;23776;51.592;7.180;2024-01-15T15:13:26;1.80;90.40
37956;DHT22;23776;51.592;7.180;2024-01-15T15:15:53;1.80;90.40
37956;DHT22;23776;51.592;7.180;2024-01-15T15:18:21;1.80;89.20
37956;DHT22;23776;51.592;7.180;2024-01-15T15:20:48;1.70;89.80
37956;DHT22;23776;51.592;7.180;2024-01-15T15:23:13;1.70;88.40
37956;DHT22;23776;51.592;7.180;2024-01-15T15:25:39;1.70;84.40
37956;DHT22;23776;51.592;7.180;2024-01-15T15:28:05;1.70;83.20
37956;DHT22;23776;51.592;7.180;2024-01-15T15:30:31;1.70;80.30
37956;DHT22;23776;51.592;7.180;2024-01-15T15:32:57;1.60;82.30
37956;DHT22;23776;51.592;7.180;2024-01-15T15:35:22;1.60;83.60
37956;DHT22;23776;51.592;7.180;2024-01-15T15:37:48;1.60;82.00
37956;DHT22;23776;51.592;7.180;2024-01-15T15:40:13;1.60;79.90
37956;DHT22;23776;51.592;7.180;2024-01-15T15:42:39;1.60;78.40
37956;DHT22;23776;51.592;7.180;2024-01-15T15:45:05;1.50;79.00
37956;DHT22;23776;51.592;7.180;2024-01-15T15:47:31;1.50;76.90
37956;DHT22;23776;51.592;7.180;2024-01-15T15:49:57;1.50;75.60
37956;DHT22;23776;51.592;7.180;2024-01-15T15:52:23;1.50;77.60
37956;DHT22;23776;51.592;7.180;2024-01-15T15:54:49;1.40;73.80